createdAt,value
2018-07-12T00:00:02.471Z,12.4
2018-07-12T00:15:02.792Z,12.1
2018-07-12T00:30:03.304Z,12.2
2018-07-12T00:45:02.629Z,12.1
2018-07-12T01:00:02.984Z,12
2018-07-12T01:15:02.293Z,11.8
2018-07-12T01:30:02.745Z,11.7
2018-07-12T01:45:03.089Z,11.7
2018-07-12T02:00:02.488Z,11.4
2018-07-12T02:15:02.784Z,11.4
2018-07-12T02:30:03.266Z,11.1
2018-07-12T02:45:02.565Z,11
2018-07-12T03:00:02.905Z,10.8
2018-07-12T03:15:03.211Z,10.9
2018-07-12T03:30:02.633Z,10.9
2018-07-12T03:45:02.990Z,11
2018-07-12T04:00:02.339Z,11.2
2018-07-12T04:15:02.670Z,11.4
2018-07-12T04:30:03.074Z,11.4
2018-07-12T04:45:02.484Z,11.8
2018-07-12T05:00:02.772Z,11.8
2018-07-12T05:15:03.148Z,12.1
2018-07-12T05:30:02.596Z,12.4
2018-07-12T05:45:02.875Z,12.7
2018-07-12T06:00:03.224Z,13
2018-07-12T06:15:02.584Z,13.5
2018-07-12T06:30:03.131Z,14
2018-07-12T06:45:02.585Z,14.6
2018-07-12T07:00:02.896Z,15.2
2018-07-12T07:15:03.233Z,16
2018-07-12T07:30:02.639Z,16.8
2018-07-12T07:45:02.982Z,17.2
2018-07-12T08:00:02.274Z,17.6
2018-07-12T08:15:02.606Z,18.1
2018-07-12T08:30:03.029Z,18.6
2018-07-12T08:45:02.498Z,19.3
2018-07-12T09:00:02.838Z,20.9
2018-07-12T09:15:03.179Z,21.8
2018-07-12T09:30:02.566Z,22.5
2018-07-12T09:45:02.864Z,21.1
2018-07-12T10:00:03.190Z,20.8
2018-07-12T10:15:02.582Z,20.7
2018-07-12T10:30:02.986Z,20.7
2018-07-12T10:45:02.306Z,21.4
2018-07-12T11:00:02.610Z,21
2018-07-12T11:15:02.885Z,22.2
2018-07-12T11:30:02.288Z,21.2
2018-07-12T11:45:02.622Z,23
2018-07-12T12:00:02.958Z,23.3
2018-07-12T12:15:03.291Z,22.6
2018-07-12T12:30:02.684Z,23.3
2018-07-12T12:45:03.065Z,23.2
2018-07-12T13:00:02.452Z,24.2
2018-07-12T13:15:02.763Z,23.3
2018-07-12T13:30:03.200Z,25.2
2018-07-12T13:45:02.492Z,24.9
2018-07-12T14:00:02.850Z,24.9
2018-07-12T14:15:03.225Z,23.8
2018-07-12T14:30:02.637Z,23.9
2018-07-12T14:45:02.988Z,24.2
2018-07-12T15:00:02.353Z,23.2
2018-07-12T15:15:02.671Z,23
2018-07-12T15:30:03.080Z,23.1
2018-07-12T15:45:02.405Z,22.4
2018-07-12T16:00:02.759Z,22.5
2018-07-12T16:15:03.114Z,22.1
2018-07-12T16:30:02.572Z,22.1
2018-07-12T16:45:02.977Z,22
2018-07-12T17:00:02.286Z,21.9
2018-07-12T17:15:02.698Z,21.9
2018-07-12T17:30:03.106Z,21.6
2018-07-12T17:45:02.460Z,21.4
2018-07-12T18:00:02.787Z,21.4
2018-07-12T18:15:03.096Z,21
2018-07-12T18:30:02.501Z,20.4
2018-07-12T18:45:02.838Z,19.9
2018-07-12T19:00:03.207Z,19.1
2018-07-12T19:15:02.546Z,18.5
2018-07-12T19:30:02.967Z,17.8
2018-07-12T19:45:02.277Z,17.6
2018-07-12T20:00:02.568Z,17.1
2018-07-12T20:15:02.887Z,16.9
2018-07-12T20:30:02.414Z,16.6
2018-07-12T20:45:02.721Z,16.4
2018-07-12T21:00:03.086Z,16.1
2018-07-12T21:15:02.380Z,15.7
2018-07-12T21:30:02.772Z,15.5
2018-07-12T21:45:03.098Z,15.4
2018-07-12T22:00:02.431Z,15.1
2018-07-12T22:15:02.774Z,14.8
2018-07-12T22:30:03.220Z,14.6
2018-07-12T22:45:02.488Z,14.6
2018-07-12T23:00:02.778Z,14.2
2018-07-12T23:15:03.057Z,14.2
2018-07-12T23:30:02.506Z,14
2018-07-12T23:45:02.788Z,13.8
